Time;durP1;ratioP1;P1;durP2;ratioP2;P2;SDS_P1;SDS_P2;PMS_P1;PMS_P2;Temp;Humidity;BMP_temperature;BMP_pressure;BME280_temperature;BME280_humidity;BME280_pressure;Samples;Min_cycle;Max_cycle;Signal;HPM_P1;HPM_P2
2024/04/08 00:00:26;;;;;;;8.10;3.07;;;17.00;62.70;;;;;;4970540;28;20644;-73
2024/04/08 00:02:53;;;;;;;5.57;2.13;;;17.00;63.90;;;;;;4975551;28;21215;-73
2024/04/08 00:05:19;;;;;;;8.40;3.00;;;17.00;63.40;;;;;;4973665;28;20636;-73
2024/04/08 00:07:47;;;;;;;9.07;2.83;;;17.00;64.90;;;;;;5004597;28;20731;-72
2024/04/08 00:10:14;;;;;;;7.37;2.47;;;16.90;64.60;;;;;;4979679;28;20668;-73
2024/04/08 00:12:41;;;;;;;4.30;1.90;;;16.90;64.70;;;;;;4972745;28;20666;-73
2024/04/08 00:15:08;;;;;;;7.00;3.60;;;16.90;64.40;;;;;;4971902;28;20626;-73
2024/04/08 00:17:35;;;;;;;5.83;2.83;;;16.90;65.00;;;;;;4973578;28;20671;-72
2024/04/08 00:20:03;;;;;;;8.87;2.07;;;16.90;65.30;;;;;;4987042;28;20972;-73
2024/04/08 00:22:30;;;;;;;9.37;2.77;;;16.90;64.60;;;;;;4970495;28;20632;-73
2024/04/08 00:24:56;;;;;;;9.40;3.60;;;16.90;64.10;;;;;;5002304;28;20628;-73
2024/04/08 00:27:24;;;;;;;8.47;3.00;;;16.90;63.20;;;;;;4986992;28;20719;-73
2024/04/08 00:29:50;;;;;;;5.00;2.97;;;16.90;62.80;;;;;;4972245;28;20831;-73
2024/04/08 00:32:17;;;;;;;9.23;3.10;;;16.90;64.10;;;;;;4994741;28;20634;-72
2024/04/08 00:34:43;;;;;;;8.23;2.70;;;16.90;64.20;;;;;;5000214;28;20988;-73
2024/04/08 00:37:10;;;;;;;10.17;3.27;;;16.90;65.10;;;;;;4994592;28;20725;-73
2024/04/08 00:39:36;;;;;;;6.60;3.20;;;16.80;65.40;;;;;;4970225;28;20242;-73
2024/04/08 00:42:04;;;;;;;6.40;2.97;;;16.80;65.50;;;;;;4981386;28;20617;-73
2024/04/08 00:44:31;;;;;;;9.30;3.13;;;16.80;65.40;;;;;;4977440;28;20678;-73
2024/04/08 00:46:59;;;;;;;5.20;2.87;;;16.80;65.60;;;;;;5007450;28;20624;-72
2024/04/08 00:49:28;;;;;;;3.07;2.13;;;16.70;65.40;;;;;;4970954;28;20964;-72
2024/04/08 00:51:56;;;;;;;5.40;2.10;;;16.80;65.10;;;;;;5016153;28;20891;-73
2024/04/08 00:54:23;;;;;;;12.63;2.87;;;16.80;66.40;;;;;;4976003;28;20745;-73
2024/04/08 00:56:50;;;;;;;6.50;2.37;;;16.70;66.90;;;;;;4986460;28;20726;-73
2024/04/08 00:59:16;;;;;;;6.37;2.53;;;16.70;68.40;;;;;;4991703;28;21004;-73
2024/04/08 01:01:44;;;;;;;6.80;3.70;;;16.60;69.10;;;;;;4972198;28;20626;-73
2024/04/08 01:04:11;;;;;;;7.37;3.00;;;16.60;67.40;;;;;;4970934;28;21221;-73
2024/04/08 01:06:38;;;;;;;7.30;2.57;;;16.70;67.50;;;;;;4988061;28;20623;-73
2024/04/08 01:09:04;;;;;;;6.63;2.70;;;16.70;64.50;;;;;;4981353;28;20640;-73
2024/04/08 01:11:31;;;;;;;6.53;3.00;;;16.80;63.50;;;;;;4977999;28;20672;-73
2024/04/08 01:13:57;;;;;;;7.50;2.87;;;16.80;61.20;;;;;;5022804;28;20624;-73
2024/04/08 01:16:24;;;;;;;7.13;2.10;;;16.80;63.30;;;;;;5024891;28;20641;-73
2024/04/08 01:18:51;;;;;;;8.13;3.20;;;16.80;60.70;;;;;;5007742;28;20629;-73
2024/04/08 01:21:18;;;;;;;6.07;2.30;;;16.80;63.80;;;;;;4976284;28;20634;-73
2024/04/08 01:23:45;;;;;;;4.00;2.43;;;16.80;64.60;;;;;;4981120;28;20625;-73
2024/04/08 01:26:14;;;;;;;10.63;2.80;;;16.80;66.40;;;;;;4975687;28;20640;-73
2024/04/08 01:28:40;;;;;;;5.77;2.70;;;16.70;66.20;;;;;;4981034;28;20716;-72
2024/04/08 01:31:08;;;;;;;4.80;2.90;;;16.70;65.60;;;;;;4996220;28;20659;-72
2024/04/08 01:33:37;;;;;;;6.30;2.40;;;16.70;67.40;;;;;;4987029;28;21340;-72
2024/04/08 01:36:04;;;;;;;7.50;2.70;;;16.60;68.80;;;;;;4998484;28;20687;-72
2024/04/08 01:38:31;;;;;;;8.40;2.73;;;16.60;68.20;;;;;;4998215;28;20628;-72
2024/04/08 01:41:00;;;;;;;11.43;2.70;;;16.60;66.50;;;;;;4981282;28;20627;-73
2024/04/08 01:43:26;;;;;;;7.53;2.67;;;16.60;66.10;;;;;;4982755;28;20622;-73
2024/04/08 01:45:54;;;;;;;9.90;3.10;;;16.60;66.20;;;;;;4980685;28;20628;-73
2024/04/08 01:48:21;;;;;;;4.13;2.30;;;16.60;66.50;;;;;;4969925;28;21013;-73
2024/04/08 01:50:49;;;;;;;11.03;2.90;;;16.60;67.00;;;;;;4975596;28;20661;-73
2024/04/08 01:53:15;;;;;;;5.73;2.83;;;16.50;65.90;;;;;;4991401;28;20629;-72
2024/04/08 01:55:42;;;;;;;7.17;2.63;;;16.50;67.60;;;;;;4969201;28;20638;-72
2024/04/08 01:58:11;;;;;;;5.50;2.77;;;16.50;68.30;;;;;;4988003;28;20625;-72
2024/04/08 02:00:40;;;;;;;4.10;2.80;;;16.40;69.30;;;;;;4996480;28;21040;-72
2024/04/08 02:03:08;;;;;;;8.70;2.40;;;16.50;69.20;;;;;;4968630;28;20627;-72
2024/04/08 02:05:35;;;;;;;14.77;3.83;;;16.50;68.10;;;;;;4974449;28;21196;-72
2024/04/08 02:08:01;;;;;;;6.80;2.40;;;16.40;69.00;;;;;;4976792;28;20689;-72
2024/04/08 02:10:28;;;;;;;8.87;3.30;;;16.40;68.60;;;;;;4971137;28;20661;-72
2024/04/08 02:12:54;;;;;;;7.57;3.90;;;16.40;69.30;;;;;;4972258;28;20647;-72
2024/04/08 02:15:23;;;;;;;7.40;2.73;;;16.30;69.60;;;;;;4980458;28;21290;-71
2024/04/08 02:17:49;;;;;;;9.83;2.83;;;16.30;70.20;;;;;;4981824;28;21223;-72
2024/04/08 02:20:17;;;;;;;4.00;2.50;;;16.20;70.70;;;;;;5001060;28;21018;-73
2024/04/08 02:22:45;;;;;;;4.93;2.30;;;16.20;71.40;;;;;;5001984;28;20630;-73
2024/04/08 02:25:12;;;;;;;10.67;2.87;;;16.10;71.80;;;;;;4973234;28;20650;-73
2024/04/08 02:27:39;;;;;;;10.50;4.10;;;16.00;71.30;;;;;;4970732;28;21225;-73
2024/04/08 02:30:08;;;;;;;7.50;2.80;;;16.00;72.10;;;;;;4971298;28;21199;-73
2024/04/08 02:32:36;;;;;;;7.00;3.20;;;16.00;73.40;;;;;;4970628;28;20637;-73
2024/04/08 02:35:05;;;;;;;10.23;2.80;;;15.80;72.60;;;;;;4987506;28;20725;-73
2024/04/08 02:37:32;;;;;;;7.87;2.90;;;15.70;73.90;;;;;;4976672;28;20630;-73
2024/04/08 02:40:04;;;;;;;5.03;2.47;;;15.60;72.80;;;;;;4975680;28;20630;-73
2024/04/08 02:42:31;;;;;;;4.30;2.27;;;15.40;72.60;;;;;;4985786;28;21003;-72
2024/04/08 02:44:59;;;;;;;7.20;2.90;;;15.40;74.30;;;;;;4977074;28;20993;-73
2024/04/08 02:47:26;;;;;;;7.23;3.00;;;15.40;73.10;;;;;;4984643;28;20632;-73
2024/04/08 02:49:55;;;;;;;7.00;3.00;;;15.50;74.70;;;;;;4972815;28;20646;-73
2024/04/08 02:52:22;;;;;;;7.17;2.97;;;15.50;75.10;;;;;;5000223;28;21134;-73
2024/04/08 02:54:50;;;;;;;5.70;3.07;;;15.40;76.00;;;;;;4967305;28;20626;-73
2024/04/08 02:57:17;;;;;;;6.90;3.07;;;15.30;75.90;;;;;;4974509;28;20722;-73
2024/04/08 02:59:44;;;;;;;23.90;6.47;;;15.20;76.40;;;;;;5008034;28;20748;-72
2024/04/08 03:02:10;;;;;;;11.63;3.40;;;15.10;75.40;;;;;;4999167;28;20287;-72
2024/04/08 03:04:37;;;;;;;23.50;5.00;;;15.10;76.20;;;;;;4975847;28;20622;-72
2024/04/08 03:07:04;;;;;;;42.33;4.60;;;15.00;76.90;;;;;;4972039;28;20203;-72
2024/04/08 03:09:31;;;;;;;24.53;3.47;;;14.90;76.80;;;;;;4996746;28;20641;-72
2024/04/08 03:11:56;;;;;;;82.87;7.80;;;14.90;77.30;;;;;;4973852;28;20679;-73
2024/04/08 03:14:23;;;;;;;30.07;4.50;;;14.90;78.60;;;;;;4998122;28;20622;-73
2024/04/08 03:16:49;;;;;;;16.20;3.53;;;14.80;78.80;;;;;;4998730;28;20214;-73
2024/04/08 03:19:16;;;;;;;16.20;3.03;;;14.70;78.80;;;;;;5021151;28;20693;-73
2024/04/08 03:21:41;;;;;;;40.70;5.20;;;14.80;79.50;;;;;;4971525;28;20211;-73
2024/04/08 03:24:10;;;;;;;41.77;5.53;;;14.80;79.50;;;;;;4978823;28;20632;-73
2024/04/08 03:26:35;;;;;;;26.03;4.20;;;14.80;78.80;;;;;;5011555;28;20660;-73
2024/04/08 03:29:02;;;;;;;57.63;6.20;;;14.80;77.90;;;;;;4978232;28;21075;-73
2024/04/08 03:31:28;;;;;;;13.13;3.70;;;14.80;78.80;;;;;;4970918;28;20570;-73
2024/04/08 03:33:56;;;;;;;5.00;3.10;;;14.70;78.60;;;;;;4974689;28;20626;-73
2024/04/08 03:36:21;;;;;;;5.83;2.40;;;14.60;80.60;;;;;;4986034;28;20710;-73
2024/04/08 03:38:49;;;;;;;13.13;3.60;;;14.70;79.90;;;;;;4972491;28;20722;-73
2024/04/08 03:41:17;;;;;;;8.93;3.00;;;14.60;79.30;;;;;;4977169;28;20198;-73
2024/04/08 03:43:44;;;;;;;8.10;3.20;;;14.60;79.50;;;;;;4972278;28;20640;-73
2024/04/08 03:46:10;;;;;;;8.80;3.30;;;14.50;78.10;;;;;;4987856;28;20726;-73
2024/04/08 03:48:38;;;;;;;5.53;3.00;;;14.50;79.30;;;;;;4985976;28;20731;-73
2024/04/08 03:51:07;;;;;;;9.33;2.97;;;14.40;79.70;;;;;;4975773;28;20718;-73
2024/04/08 03:53:34;;;;;;;6.43;2.53;;;14.40;80.10;;;;;;4980358;28;20617;-73
2024/04/08 03:56:04;;;;;;;7.83;3.30;;;14.40;80.50;;;;;;4978357;28;20958;-73
2024/04/08 03:58:32;;;;;;;7.30;3.23;;;14.30;80.60;;;;;;5013976;28;20621;-73
2024/04/08 04:00:58;;;;;;;12.40;2.93;;;14.30;80.10;;;;;;4991194;28;20652;-73
2024/04/08 04:03:25;;;;;;;19.53;4.17;;;14.20;80.50;;;;;;5007180;28;20625;-73
2024/04/08 04:05:50;;;;;;;49.13;6.33;;;14.20;81.10;;;;;;4974611;28;20201;-73
2024/04/08 04:08:17;;;;;;;9.63;2.67;;;14.20;80.70;;;;;;5005360;28;20624;-73
2024/04/08 04:10:44;;;;;;;13.03;2.93;;;14.20;80.80;;;;;;4982425;28;20198;-73
2024/04/08 04:13:11;;;;;;;8.50;2.63;;;14.20;81.20;;;;;;4980240;28;20632;-73
2024/04/08 04:17:21;;;;;;;3.13;2.17;;;14.40;79.50;;;;;;5539155;25;21189;-72
2024/04/08 04:19:47;;;;;;;1.83;1.50;;;14.20;79.80;;;;;;5502063;25;20560;-72
2024/04/08 04:22:16;;;;;;;3.60;1.43;;;14.00;79.70;;;;;;5503147;25;20626;-72
2024/04/08 04:24:42;;;;;;;1.47;1.37;;;13.80;79.60;;;;;;5502754;26;20557;-72
2024/04/08 04:27:11;;;;;;;1.90;1.33;;;13.90;79.80;;;;;;5500917;25;20546;-72
2024/04/08 04:29:37;;;;;;;1.23;0.97;;;13.90;80.80;;;;;;5502448;25;20599;-72
2024/04/08 04:32:07;;;;;;;0.87;0.87;;;13.90;80.60;;;;;;5501558;25;20624;-72
2024/04/08 04:34:35;;;;;;;1.60;1.50;;;13.90;80.60;;;;;;5498654;26;20552;-72
2024/04/08 04:37:04;;;;;;;1.13;1.03;;;13.80;82.00;;;;;;5502145;25;20611;-72
2024/04/08 04:39:31;;;;;;;1.03;0.80;;;13.80;82.30;;;;;;5500829;26;20599;-73
2024/04/08 04:41:59;;;;;;;1.00;0.70;;;13.70;83.10;;;;;;5501803;25;20605;-73
2024/04/08 04:44:26;;;;;;;0.83;0.33;;;13.70;82.80;;;;;;5508606;25;20559;-73
2024/04/08 04:46:55;;;;;;;0.40;0.40;;;13.70;83.10;;;;;;5501581;25;20566;-72
2024/04/08 04:49:22;;;;;;;0.30;0.20;;;13.60;82.90;;;;;;5507839;25;20895;-73
2024/04/08 04:51:53;;;;;;;0.30;0.20;;;13.70;82.60;;;;;;5501730;26;20643;-73
2024/04/08 04:54:19;;;;;;;19.43;0.73;;;13.80;82.40;;;;;;5501940;26;21455;-72
2024/04/08 04:56:48;;;;;;;1.27;0.33;;;13.70;82.50;;;;;;5501523;25;20622;-72
2024/04/08 04:59:14;;;;;;;0.40;0.33;;;13.80;81.20;;;;;;5492372;26;20566;-72
2024/04/08 05:01:43;;;;;;;4.33;1.40;;;13.80;81.80;;;;;;5501461;25;20564;-72
2024/04/08 05:04:09;;;;;;;0.50;0.50;;;13.90;81.80;;;;;;5502303;26;20617;-72
2024/04/08 05:06:38;;;;;;;16.93;1.23;;;13.90;78.00;;;;;;5500311;25;20943;-72
2024/04/08 05:09:08;;;;;;;0.97;0.50;;;14.00;78.10;;;;;;5502077;25;20923;-72
2024/04/08 05:11:36;;;;;;;0.30;0.20;;;14.10;77.10;;;;;;5501947;25;20609;-72
2024/04/08 05:14:03;;;;;;;0.50;0.33;;;14.10;76.80;;;;;;5502208;25;20904;-72
2024/04/08 05:16:32;;;;;;;0.40;0.40;;;14.20;78.00;;;;;;5500187;25;21254;-73
2024/04/08 05:18:58;;;;;;;0.30;0.10;;;14.30;77.80;;;;;;5498487;25;20546;-74
2024/04/08 05:21:27;;;;;;;1.23;1.13;;;14.30;77.60;;;;;;5499868;25;20609;-73
2024/04/08 05:23:54;;;;;;;0.93;0.93;;;14.40;77.70;;;;;;5500235;26;20592;-73
2024/04/08 05:26:26;;;;;;;0.60;0.60;;;14.40;77.40;;;;;;5492002;25;20638;-73
2024/04/08 05:28:55;;;;;;;0.67;0.67;;;14.40;77.60;;;;;;5486580;26;20920;-73
2024/04/08 05:31:24;;;;;;;0.40;0.30;;;14.30;78.10;;;;;;5493750;26;20586;-71
2024/04/08 05:33:50;;;;;;;0.30;0.20;;;14.40;78.00;;;;;;5497597;26;20610;-72
2024/04/08 05:36:19;;;;;;;0.40;0.30;;;14.30;79.80;;;;;;5495694;26;20558;-71
2024/04/08 05:38:46;;;;;;;0.40;0.30;;;14.30;79.30;;;;;;5498413;26;20622;-72
2024/04/08 05:41:29;;;;;;;0.40;0.30;;;14.40;80.70;;;;;;5499284;25;20604;-72
2024/04/08 05:44:02;;;;;;;0.50;0.50;;;14.40;79.80;;;;;;5487340;26;20905;-71
2024/04/08 05:46:31;;;;;;;0.30;0.20;;;14.40;80.80;;;;;;5499334;26;21127;-72
2024/04/08 05:48:57;;;;;;;1.13;0.93;;;14.40;80.40;;;;;;5497647;26;21150;-72
2024/04/08 05:51:27;;;;;;;0.40;0.20;;;14.50;81.40;;;;;;5495389;26;21375;-71
2024/04/08 05:53:53;;;;;;;1.00;0.73;;;14.50;81.00;;;;;;5497200;26;21134;-76
2024/04/08 05:56:25;;;;;;;1.17;0.53;;;14.50;80.70;;;;;;5493294;26;20556;-75
2024/04/08 05:58:56;;;;;;;0.57;0.57;;;14.50;81.10;;;;;;5475760;26;20572;-76
2024/04/08 06:01:26;;;;;;;0.70;0.60;;;14.60;80.70;;;;;;5481480;26;20563;-76
2024/04/08 06:03:54;;;;;;;0.30;0.17;;;14.70;81.00;;;;;;5481158;26;20661;-76
2024/04/08 06:06:23;;;;;;;1.80;1.13;;;14.70;81.20;;;;;;5481179;26;20551;-76
2024/04/08 06:08:54;;;;;;;0.40;0.30;;;14.80;81.20;;;;;;5481396;26;20628;-76
2024/04/08 06:11:23;;;;;;;0.40;0.20;;;14.80;82.20;;;;;;5478812;26;21217;-76
2024/04/08 06:13:49;;;;;;;0.63;0.40;;;14.80;80.80;;;;;;5482144;26;20559;-76
2024/04/08 06:16:20;;;;;;;0.40;0.30;;;14.80;81.40;;;;;;5483726;26;20571;-76
2024/04/08 06:18:49;;;;;;;0.97;0.70;;;14.90;81.80;;;;;;5483269;26;20604;-77
2024/04/08 06:21:18;;;;;;;0.87;0.87;;;14.90;80.70;;;;;;5483793;26;20572;-76
2024/04/08 06:23:44;;;;;;;0.50;0.30;;;15.00;80.80;;;;;;5482488;26;20580;-77
2024/04/08 06:26:14;;;;;;;0.40;0.33;;;15.00;81.80;;;;;;5482129;26;20623;-76
2024/04/08 06:28:43;;;;;;;0.40;0.20;;;15.00;82.20;;;;;;5478197;26;20568;-75
2024/04/08 06:31:11;;;;;;;1.57;1.47;;;15.10;82.60;;;;;;5481835;26;20599;-75
2024/04/08 06:33:40;;;;;;;5.50;0.77;;;15.20;83.50;;;;;;5477765;26;20552;-76
2024/04/08 06:36:21;;;;;;;0.40;0.40;;;15.20;81.30;;;;;;5481985;26;20601;-75
2024/04/08 06:38:47;;;;;;;0.50;0.47;;;15.30;80.10;;;;;;5482370;26;20561;-75
2024/04/08 06:41:18;;;;;;;0.53;0.53;;;15.40;78.30;;;;;;5482227;26;20624;-75
2024/04/08 06:43:45;;;;;;;0.50;0.43;;;15.60;78.40;;;;;;5481610;26;20608;-75
2024/04/08 06:46:14;;;;;;;16.73;1.77;;;15.70;78.30;;;;;;5482748;26;20670;-76
2024/04/08 06:48:43;;;;;;;1.03;0.77;;;15.80;78.00;;;;;;5479215;26;20624;-75
2024/04/08 06:51:15;;;;;;;0.40;0.30;;;16.00;78.40;;;;;;5484397;26;20574;-75
2024/04/08 06:53:44;;;;;;;0.50;0.33;;;16.10;78.70;;;;;;5483109;26;20578;-74
2024/04/08 06:56:14;;;;;;;0.40;0.30;;;16.10;79.00;;;;;;5482243;26;20567;-75
2024/04/08 06:58:41;;;;;;;0.50;0.40;;;16.20;77.90;;;;;;5479966;26;20606;-75
2024/04/08 07:01:10;;;;;;;0.70;0.53;;;16.30;75.90;;;;;;5485426;26;20557;-75
2024/04/08 07:03:36;;;;;;;0.40;0.30;;;16.40;73.90;;;;;;5487471;26;20597;-75
2024/04/08 07:06:10;;;;;;;1.43;1.07;;;16.50;73.30;;;;;;5482324;26;20599;-75
2024/04/08 07:08:36;;;;;;;0.60;0.40;;;16.60;74.50;;;;;;5480532;26;20601;-76
2024/04/08 07:11:05;;;;;;;0.83;0.83;;;16.80;73.30;;;;;;5471028;26;20553;-76
2024/04/08 07:13:31;;;;;;;0.60;0.30;;;16.80;72.90;;;;;;5483211;26;20883;-75
2024/04/08 07:16:00;;;;;;;0.40;0.40;;;17.00;74.80;;;;;;5473366;26;20563;-74
2024/04/08 07:18:27;;;;;;;0.40;0.30;;;17.10;74.10;;;;;;5478252;25;20607;-74
2024/04/08 07:20:56;;;;;;;0.40;0.23;;;17.10;73.80;;;;;;5482142;26;20634;-74
2024/04/08 07:23:24;;;;;;;0.80;0.50;;;17.30;73.90;;;;;;5485038;26;20558;-74
2024/04/08 07:25:53;;;;;;;0.77;0.67;;;17.40;73.30;;;;;;5480159;26;20604;-74
2024/04/08 07:28:20;;;;;;;0.30;0.20;;;17.50;71.70;;;;;;5481449;26;20552;-75
2024/04/08 07:30:49;;;;;;;0.67;0.67;;;17.60;71.90;;;;;;5482301;26;21206;-74
2024/04/08 07:33:15;;;;;;;0.40;0.40;;;17.80;71.80;;;;;;5482243;26;20604;-74
2024/04/08 07:35:44;;;;;;;0.40;0.37;;;17.80;69.40;;;;;;5481492;26;20594;-74
2024/04/08 07:38:10;;;;;;;0.43;0.43;;;18.00;70.00;;;;;;5472163;26;20653;-74
2024/04/08 07:40:42;;;;;;;0.77;0.77;;;18.10;68.00;;;;;;5461877;26;20604;-74
2024/04/08 07:43:08;;;;;;;0.40;0.40;;;18.20;66.70;;;;;;5478694;26;20916;-75
2024/04/08 07:45:40;;;;;;;0.30;0.20;;;18.40;63.70;;;;;;5479011;26;20612;-75
2024/04/08 07:48:07;;;;;;;0.40;0.30;;;18.50;64.50;;;;;;5485400;25;20572;-75
2024/04/08 07:50:36;;;;;;;2.20;0.70;;;18.60;64.70;;;;;;5486443;26;21136;-75
2024/04/08 07:53:02;;;;;;;0.40;0.30;;;18.70;66.40;;;;;;5481310;26;21250;-73
2024/04/08 07:55:31;;;;;;;0.57;0.30;;;18.80;63.70;;;;;;5482079;26;21137;-74
2024/04/08 07:58:00;;;;;;;0.40;0.33;;;18.90;64.80;;;;;;5482345;26;20576;-74
2024/04/08 08:00:29;;;;;;;0.30;0.20;;;19.00;64.70;;;;;;5481615;26;20557;-74
2024/04/08 08:02:55;;;;;;;0.30;0.20;;;19.20;64.10;;;;;;5482536;26;20627;-74
2024/04/08 08:05:24;;;;;;;0.40;0.30;;;19.30;63.10;;;;;;5482570;26;20624;-74
2024/04/08 08:07:50;;;;;;;0.40;0.20;;;19.40;62.90;;;;;;5481866;26;20556;-74
2024/04/08 08:10:19;;;;;;;0.30;0.20;;;19.50;62.70;;;;;;5482158;26;20669;-74
2024/04/08 08:12:48;;;;;;;0.60;0.60;;;19.60;61.50;;;;;;5483321;26;20548;-74
2024/04/08 08:15:21;;;;;;;0.50;0.20;;;19.80;61.60;;;;;;5481263;26;20572;-74
2024/04/08 08:17:54;;;;;;;0.30;0.20;;;19.80;60.00;;;;;;5482729;26;20560;-74
2024/04/08 08:20:23;;;;;;;4.40;1.17;;;19.90;59.70;;;;;;5482402;26;20612;-74
2024/04/08 08:22:56;;;;;;;1.33;0.30;;;20.00;60.40;;;;;;5482306;26;20935;-74
2024/04/08 08:25:25;;;;;;;0.57;0.57;;;20.10;59.40;;;;;;5482849;26;20576;-74
2024/04/08 08:27:54;;;;;;;1.30;0.53;;;20.20;58.70;;;;;;5482291;26;20552;-74
2024/04/08 08:30:26;;;;;;;0.83;0.83;;;20.40;57.40;;;;;;5482593;26;20600;-74
2024/04/08 08:32:55;;;;;;;0.53;0.30;;;20.50;57.60;;;;;;5481921;26;20597;-74
2024/04/08 08:35:24;;;;;;;0.70;0.40;;;20.60;59.20;;;;;;5479655;26;20683;-74
2024/04/08 08:37:50;;;;;;;0.60;0.30;;;20.70;58.30;;;;;;5481110;26;20544;-75
2024/04/08 08:40:20;;;;;;;0.53;0.43;;;20.80;57.20;;;;;;5481839;26;20601;-74
2024/04/08 08:42:51;;;;;;;0.70;0.50;;;20.80;56.20;;;;;;5483372;26;20609;-74
2024/04/08 08:45:20;;;;;;;0.77;0.47;;;21.00;56.90;;;;;;5480495;26;20991;-73
2024/04/08 08:47:49;;;;;;;0.30;0.10;;;21.20;57.10;;;;;;5468615;26;20651;-73
2024/04/08 08:50:18;;;;;;;0.40;0.30;;;21.20;55.40;;;;;;5482875;26;20592;-74
2024/04/08 08:52:44;;;;;;;0.60;0.30;;;21.30;56.50;;;;;;5484349;26;20560;-74
2024/04/08 08:55:13;;;;;;;0.40;0.20;;;21.30;54.70;;;;;;5476909;26;20612;-73
2024/04/08 08:57:44;;;;;;;2.10;0.97;;;21.50;54.50;;;;;;5480896;26;20999;-74
2024/04/08 09:00:18;;;;;;;0.50;0.20;;;21.60;56.00;;;;;;5480540;26;20944;-73
2024/04/08 09:02:48;;;;;;;0.77;0.33;;;21.60;54.60;;;;;;5483520;26;20588;-73
2024/04/08 09:05:17;;;;;;;0.40;0.40;;;21.70;54.60;;;;;;5482629;26;20552;-73
2024/04/08 09:07:43;;;;;;;0.40;0.30;;;21.80;54.90;;;;;;5483738;26;20608;-73
2024/04/08 09:10:12;;;;;;;0.60;0.33;;;21.90;53.50;;;;;;5484990;26;20567;-74
2024/04/08 09:12:44;;;;;;;0.37;0.20;;;22.00;54.90;;;;;;5480755;26;20940;-73
2024/04/08 09:15:12;;;;;;;8.20;0.57;;;22.30;53.30;;;;;;5485143;26;20568;-73
2024/04/08 09:17:41;;;;;;;0.60;0.40;;;22.30;54.10;;;;;;5485199;26;20564;-74
2024/04/08 09:20:11;;;;;;;0.47;0.40;;;22.30;53.20;;;;;;5485841;26;20553;-74
2024/04/08 09:22:40;;;;;;;0.40;0.20;;;22.50;53.90;;;;;;5484732;26;21120;-73
2024/04/08 09:25:12;;;;;;;0.30;0.20;;;22.60;53.70;;;;;;5491853;26;20570;-73
2024/04/08 09:27:41;;;;;;;0.40;0.30;;;22.60;54.20;;;;;;5482229;26;20608;-72
2024/04/08 09:30:08;;;;;;;0.40;0.40;;;22.60;52.50;;;;;;5485466;26;20548;-73
2024/04/08 09:32:38;;;;;;;0.30;0.20;;;22.70;54.70;;;;;;5483871;26;20601;-73
2024/04/08 09:35:07;;;;;;;1.40;0.77;;;22.80;53.50;;;;;;5480007;26;20552;-73
2024/04/08 09:37:39;;;;;;;0.40;0.30;;;22.90;52.20;;;;;;5485070;26;20608;-73
2024/04/08 09:40:06;;;;;;;0.63;0.40;;;23.00;51.70;;;;;;5483481;26;20548;-73
2024/04/08 09:42:36;;;;;;;0.30;0.27;;;23.00;53.00;;;;;;5490680;26;20619;-73
2024/04/08 09:45:03;;;;;;;0.93;0.30;;;23.10;52.90;;;;;;5484277;26;20541;-72
2024/04/08 09:47:33;;;;;;;0.50;0.40;;;23.20;52.00;;;;;;5486539;26;20637;-73
2024/04/08 09:49:59;;;;;;;0.30;0.30;;;23.30;51.40;;;;;;5484457;26;20608;-73
2024/04/08 09:52:28;;;;;;;0.40;0.37;;;23.50;51.30;;;;;;5496876;26;20606;-72
2024/04/08 09:54:57;;;;;;;0.30;0.20;;;23.50;51.50;;;;;;5483524;26;21069;-72
2024/04/08 09:57:29;;;;;;;0.30;0.20;;;23.50;51.60;;;;;;5483432;26;20641;-72
2024/04/08 09:59:56;;;;;;;0.57;0.57;;;23.60;51.50;;;;;;5481700;26;20714;-72
2024/04/08 10:02:33;;;;;;;0.70;0.30;;;23.60;51.40;;;;;;5479457;26;20992;-72
2024/04/08 10:05:03;;;;;;;1.60;0.30;;;23.70;51.10;;;;;;5480914;26;21005;-73
2024/04/08 10:07:33;;;;;;;0.90;0.33;;;23.70;50.80;;;;;;5473416;26;21124;-74
2024/04/08 10:10:03;;;;;;;0.50;0.40;;;23.80;51.30;;;;;;5481367;26;20552;-72
2024/04/08 10:12:34;;;;;;;0.40;0.40;;;23.90;50.50;;;;;;5484023;26;20568;-73
2024/04/08 10:15:10;;;;;;;0.43;0.40;;;24.10;51.10;;;;;;5470655;26;20541;-73
2024/04/08 10:17:39;;;;;;;0.40;0.37;;;24.10;51.50;;;;;;5497463;26;20554;-73
2024/04/08 10:20:06;;;;;;;0.50;0.43;;;24.10;52.20;;;;;;5484790;26;20934;-73
2024/04/08 10:22:36;;;;;;;0.40;0.30;;;24.20;50.70;;;;;;5490297;26;20665;-73
2024/04/08 10:25:06;;;;;;;0.53;0.53;;;24.20;50.30;;;;;;5481088;26;20561;-73
2024/04/08 10:27:37;;;;;;;0.83;0.80;;;24.30;51.10;;;;;;5473039;25;20582;-73
2024/04/08 10:30:03;;;;;;;0.80;0.60;;;24.40;50.70;;;;;;5471377;26;20997;-74
2024/04/08 10:32:32;;;;;;;0.40;0.30;;;24.40;51.10;;;;;;5473901;26;20586;-74
2024/04/08 10:34:59;;;;;;;0.70;0.70;;;24.60;50.10;;;;;;5472075;26;20608;-73
2024/04/08 10:37:28;;;;;;;0.40;0.40;;;24.70;48.40;;;;;;5478226;26;20621;-73
2024/04/08 10:39:57;;;;;;;0.50;0.40;;;24.80;49.10;;;;;;5483078;26;20667;-73
2024/04/08 10:42:29;;;;;;;0.80;0.50;;;24.80;49.40;;;;;;5483645;26;20556;-73
2024/04/08 10:44:55;;;;;;;0.50;0.30;;;24.80;48.90;;;;;;5482596;26;20616;-73
2024/04/08 10:47:24;;;;;;;0.50;0.47;;;24.90;49.10;;;;;;5466880;26;20604;-73
2024/04/08 10:49:50;;;;;;;2.33;0.50;;;25.00;47.20;;;;;;5482539;26;20553;-73
2024/04/08 10:52:19;;;;;;;1.10;0.50;;;25.10;45.60;;;;;;5469313;26;21113;-73
2024/04/08 10:54:46;;;;;;;1.13;1.03;;;25.10;44.00;;;;;;5483997;25;20556;-73
2024/04/08 10:57:15;;;;;;;0.40;0.30;;;25.30;43.90;;;;;;5476492;26;20970;-73
2024/04/08 10:59:44;;;;;;;1.03;0.70;;;25.40;44.60;;;;;;5477194;26;21103;-76
2024/04/08 11:02:17;;;;;;;0.40;0.30;;;25.40;44.20;;;;;;5474859;26;22458;-76
2024/04/08 11:04:43;;;;;;;0.40;0.40;;;25.50;43.80;;;;;;5482944;26;20874;-76
2024/04/08 11:07:13;;;;;;;0.47;0.40;;;25.70;43.00;;;;;;5477463;26;21484;-76
2024/04/08 11:09:39;;;;;;;0.30;0.20;;;25.80;42.50;;;;;;5455055;26;20645;-76
2024/04/08 11:12:09;;;;;;;0.37;0.23;;;25.90;44.40;;;;;;5442032;26;20638;-76
2024/04/08 11:14:36;;;;;;;0.67;0.33;;;26.10;44.40;;;;;;5433084;26;20561;-76
2024/04/08 11:17:12;;;;;;;0.37;0.23;;;26.20;44.20;;;;;;5428826;26;20578;-77
2024/04/08 11:19:39;;;;;;;0.40;0.30;;;26.40;45.10;;;;;;5444850;26;21065;-77
2024/04/08 11:22:11;;;;;;;0.40;0.40;;;26.50;43.10;;;;;;5454984;26;20602;-74
2024/04/08 11:24:40;;;;;;;0.70;0.70;;;26.60;43.50;;;;;;5435877;26;20577;-75
2024/04/08 11:27:10;;;;;;;0.53;0.53;;;26.50;42.50;;;;;;5437533;26;20577;-75
2024/04/08 11:29:36;;;;;;;1.43;1.13;;;26.80;40.80;;;;;;5436936;26;20554;-75
2024/04/08 11:32:08;;;;;;;2.97;0.53;;;26.80;41.90;;;;;;5440877;26;20558;-76
2024/04/08 11:34:37;;;;;;;0.80;0.60;;;26.90;42.80;;;;;;5436993;26;20578;-76
2024/04/08 11:37:08;;;;;;;0.40;0.30;;;27.00;42.10;;;;;;5438158;26;21011;-76
2024/04/08 11:39:34;;;;;;;0.40;0.30;;;27.10;43.30;;;;;;5437876;26;21024;-76
2024/04/08 11:42:03;;;;;;;2.00;0.97;;;27.10;42.20;;;;;;5440594;26;21036;-75
2024/04/08 11:44:33;;;;;;;0.40;0.20;;;27.20;42.80;;;;;;5441366;26;21004;-75
2024/04/08 11:47:02;;;;;;;0.40;0.33;;;27.40;42.30;;;;;;5439607;26;20578;-76
2024/04/08 11:49:31;;;;;;;1.47;0.50;;;27.50;42.10;;;;;;5439055;26;20945;-76
2024/04/08 11:52:04;;;;;;;0.43;0.43;;;27.70;42.50;;;;;;5432999;26;20940;-76
2024/04/08 11:54:30;;;;;;;0.40;0.30;;;27.90;42.30;;;;;;5437574;26;20663;-76
2024/04/08 11:57:00;;;;;;;0.30;0.20;;;28.10;41.50;;;;;;5431475;26;20972;-76
2024/04/08 11:59:26;;;;;;;0.40;0.40;;;28.30;42.30;;;;;;5433583;26;20549;-76
2024/04/08 12:01:55;;;;;;;0.30;0.20;;;28.60;40.90;;;;;;5449459;26;20565;-76
2024/04/08 12:04:21;;;;;;;0.70;0.40;;;28.80;41.40;;;;;;5442907;26;20542;-76
2024/04/08 12:06:50;;;;;;;0.40;0.20;;;28.80;41.10;;;;;;5438583;26;20647;-76
2024/04/08 12:09:19;;;;;;;0.47;0.40;;;28.80;42.20;;;;;;5438642;26;21010;-76
2024/04/08 12:11:48;;;;;;;0.50;0.40;;;28.80;42.60;;;;;;5438814;26;20558;-76
2024/04/08 12:14:14;;;;;;;0.50;0.37;;;28.70;40.70;;;;;;5438553;26;20644;-76
2024/04/08 12:16:43;;;;;;;0.70;0.43;;;28.60;41.40;;;;;;5444662;26;20621;-76
2024/04/08 12:19:09;;;;;;;0.60;0.40;;;28.50;40.40;;;;;;5432406;26;20565;-76
2024/04/08 12:21:38;;;;;;;0.40;0.40;;;28.30;42.60;;;;;;5426000;26;20597;-76
2024/04/08 12:24:05;;;;;;;2.20;0.63;;;28.40;41.90;;;;;;5421882;26;20567;-76
2024/04/08 12:26:36;;;;;;;0.60;0.50;;;28.40;42.30;;;;;;5441623;26;20552;-75
2024/04/08 12:29:04;;;;;;;1.00;0.50;;;28.40;41.70;;;;;;5443331;26;20563;-76
2024/04/08 12:31:33;;;;;;;0.80;0.33;;;28.40;41.80;;;;;;5435971;26;21379;-75
2024/04/08 12:33:59;;;;;;;0.80;0.77;;;28.30;41.80;;;;;;5436383;26;20551;-75
2024/04/08 12:36:28;;;;;;;0.40;0.37;;;28.00;41.60;;;;;;5436207;26;21001;-76
2024/04/08 12:38:57;;;;;;;0.83;0.60;;;27.70;41.70;;;;;;5439764;26;20900;-76
2024/04/08 12:41:26;;;;;;;0.50;0.37;;;27.50;42.00;;;;;;5443235;26;20617;-76
2024/04/08 12:43:54;;;;;;;0.70;0.63;;;27.40;44.30;;;;;;5446871;26;20613;-75
2024/04/08 12:46:23;;;;;;;0.40;0.40;;;27.60;43.30;;;;;;5440001;26;20557;-76
2024/04/08 12:48:50;;;;;;;0.60;0.43;;;27.70;42.90;;;;;;5429604;26;20560;-76
2024/04/08 12:51:18;;;;;;;0.70;0.33;;;27.80;42.80;;;;;;5417733;26;20635;-76